createdAt,value
2018-07-01T00:05:04.138Z,17.38
2018-07-01T00:10:09.287Z,17.31
2018-07-01T00:15:12.922Z,17.23
2018-07-01T00:20:16.642Z,17.11
2018-07-01T00:25:20.361Z,16.97
2018-07-01T00:30:35.064Z,16.85
2018-07-01T00:35:38.580Z,16.80
2018-07-01T00:40:42.175Z,16.78
2018-07-01T00:45:45.697Z,16.78
2018-07-01T00:50:49.894Z,16.67
2018-07-01T00:55:53.549Z,16.69
2018-07-01T01:00:57.141Z,16.62
2018-07-01T01:06:00.706Z,16.61
2018-07-01T01:11:04.286Z,16.56
2018-07-01T01:16:09.256Z,16.51
2018-07-01T01:21:13.690Z,16.51
2018-07-01T01:26:17.303Z,16.46
2018-07-01T01:31:20.903Z,16.35
2018-07-01T01:36:25.636Z,16.44
2018-07-01T01:41:36.449Z,16.41
2018-07-01T01:46:47.370Z,16.36
2018-07-01T01:51:55.757Z,16.28
2018-07-01T01:57:04.482Z,16.23
2018-07-01T02:02:14.246Z,16.27
2018-07-01T02:07:23.228Z,16.18
2018-07-01T02:12:26.853Z,16.05
2018-07-01T02:17:35.758Z,16.04
2018-07-01T02:22:43.067Z,15.94
2018-07-01T02:27:48.097Z,15.88
2018-07-01T02:32:52.606Z,15.86
2018-07-01T02:37:57.013Z,15.87
2018-07-01T02:43:00.475Z,15.84
2018-07-01T02:48:04.084Z,15.79
2018-07-01T02:53:07.595Z,15.74
2018-07-01T02:58:11.578Z,15.66
2018-07-01T03:03:15.305Z,15.52
2018-07-01T03:08:20.572Z,15.48
2018-07-01T03:13:24.181Z,15.38
2018-07-01T03:18:27.869Z,15.32
2018-07-01T03:23:31.843Z,15.34
2018-07-01T03:28:35.389Z,15.30
2018-07-01T03:33:39.926Z,15.26
2018-07-01T03:38:43.631Z,15.32
2018-07-01T03:43:47.093Z,15.30
2018-07-01T03:48:50.783Z,15.39
2018-07-01T03:53:54.465Z,15.73
2018-07-01T03:58:58.184Z,15.66
2018-07-01T04:04:01.919Z,15.74
2018-07-01T04:09:10.713Z,15.96
2018-07-01T04:14:14.300Z,15.79
2018-07-01T04:19:22.221Z,15.73
2018-07-01T04:24:25.721Z,15.74
2018-07-01T04:29:29.261Z,15.79
2018-07-01T04:34:32.979Z,15.86
2018-07-01T04:39:36.840Z,15.97
2018-07-01T04:44:40.397Z,16.00
2018-07-01T04:49:44.792Z,16.20
2018-07-01T04:54:49.028Z,17.19
2018-07-01T04:59:52.857Z,19.10
2018-07-01T05:04:56.377Z,19.79
2018-07-01T05:10:00.015Z,19.80
2018-07-01T05:15:03.752Z,20.14
2018-07-01T05:20:07.357Z,19.86
2018-07-01T05:25:10.932Z,18.67
2018-07-01T05:30:25.460Z,17.91
2018-07-01T05:35:29.022Z,17.92
2018-07-01T05:40:32.621Z,17.90
2018-07-01T05:45:36.691Z,17.80
2018-07-01T05:50:40.878Z,17.96
2018-07-01T05:55:44.373Z,18.05
2018-07-01T06:00:47.939Z,18.23
2018-07-01T06:05:51.940Z,18.35
2018-07-01T06:10:55.659Z,18.61
2018-07-01T06:15:59.255Z,18.50
2018-07-01T06:21:02.837Z,18.83
2018-07-01T06:26:06.691Z,19.03
2018-07-01T06:31:10.765Z,19.20
2018-07-01T06:36:16.031Z,19.39
2018-07-01T06:41:20.537Z,19.48
2018-07-01T06:46:24.068Z,19.63
2018-07-01T06:51:27.689Z,19.85
2018-07-01T06:56:31.184Z,19.92
2018-07-01T07:01:34.773Z,19.95
2018-07-01T07:06:38.250Z,20.26
2018-07-01T07:11:42.384Z,20.41
2018-07-01T07:16:45.926Z,20.61
2018-07-01T07:21:49.484Z,20.89
2018-07-01T07:26:53.593Z,20.91
2018-07-01T07:31:57.151Z,20.82
2018-07-01T07:37:00.636Z,20.88
2018-07-01T07:42:04.705Z,20.98
2018-07-01T07:47:08.241Z,21.01
2018-07-01T07:52:11.893Z,21.28
2018-07-01T07:57:16.003Z,21.58
2018-07-01T08:02:19.873Z,21.67
2018-07-01T08:07:23.510Z,21.78
2018-07-01T08:12:27.550Z,21.93
2018-07-01T08:17:31.032Z,22.09
2018-07-01T08:22:35.521Z,22.24
2018-07-01T08:27:40.489Z,22.20
2018-07-01T08:32:44.364Z,22.32
2018-07-01T08:37:47.840Z,22.52
2018-07-01T08:42:51.478Z,22.36
2018-07-01T08:47:54.960Z,22.30
2018-07-01T08:52:58.564Z,22.64
2018-07-01T08:58:02.274Z,22.26
2018-07-01T09:03:06.935Z,22.43
2018-07-01T09:08:11.323Z,22.73
2018-07-01T09:13:14.873Z,22.84
2018-07-01T09:18:18.819Z,23.14
2018-07-01T09:23:22.418Z,23.02
2018-07-01T09:28:26.929Z,23.18
2018-07-01T09:33:30.605Z,23.14
2018-07-01T09:38:34.432Z,23.09
2018-07-01T09:43:38.030Z,23.60
2018-07-01T09:48:41.510Z,23.53
2018-07-01T09:53:45.402Z,23.67
2018-07-01T09:58:49.027Z,23.22
2018-07-01T10:03:52.944Z,23.30
2018-07-01T10:08:58.519Z,23.20
2018-07-01T10:14:02.099Z,22.89
2018-07-01T10:19:05.961Z,23.35
2018-07-01T10:24:09.565Z,23.46
2018-07-01T10:29:18.172Z,23.51
2018-07-01T10:34:21.711Z,23.86
2018-07-01T10:39:25.199Z,23.79
2018-07-01T10:44:28.760Z,23.89
2018-07-01T10:49:32.284Z,23.71
2018-07-01T10:54:35.822Z,23.88
2018-07-01T10:59:39.372Z,23.89
2018-07-01T11:04:42.986Z,24.00
2018-07-01T11:09:46.472Z,23.87
2018-07-01T11:14:50.611Z,24.07
2018-07-01T11:19:54.238Z,24.32
2018-07-01T11:24:58.464Z,24.09
2018-07-01T11:30:02.021Z,24.44
2018-07-01T11:35:05.900Z,24.82
2018-07-01T11:40:09.534Z,24.44
2018-07-01T11:45:13.056Z,24.70
2018-07-01T11:50:16.614Z,24.61
2018-07-01T11:55:20.214Z,24.62
2018-07-01T12:00:32.235Z,24.62
2018-07-01T12:05:35.822Z,24.51
2018-07-01T12:10:39.269Z,24.87
2018-07-01T12:15:43.611Z,25.03
2018-07-01T12:20:47.081Z,25.03
2018-07-01T12:25:50.827Z,24.51
2018-07-01T12:30:54.516Z,24.44
2018-07-01T12:35:58.761Z,24.96
2018-07-01T12:41:02.290Z,24.92
2018-07-01T12:46:06.291Z,24.94
2018-07-01T12:51:09.786Z,25.43
2018-07-01T12:56:14.267Z,25.14
2018-07-01T13:01:17.829Z,25.10
2018-07-01T13:06:21.527Z,24.97
2018-07-01T13:11:25.089Z,25.11
2018-07-01T13:16:28.650Z,24.87
2018-07-01T13:21:32.186Z,25.21
2018-07-01T13:26:36.184Z,25.07
2018-07-01T13:31:40.275Z,24.82
2018-07-01T13:36:43.830Z,25.28
2018-07-01T13:41:48.111Z,25.35
2018-07-01T13:46:52.342Z,25.28
2018-07-01T13:51:57.530Z,25.02
2018-07-01T13:57:01.566Z,25.27
2018-07-01T14:02:05.096Z,25.17
2018-07-01T14:07:08.719Z,25.18
2018-07-01T14:12:12.356Z,25.14
2018-07-01T14:17:16.271Z,25.56
2018-07-01T14:22:19.873Z,25.49
2018-07-01T14:27:24.036Z,25.03
2018-07-01T14:32:27.808Z,25.58
2018-07-01T14:37:31.401Z,25.37
2018-07-01T14:42:35.149Z,25.00
2018-07-01T14:47:38.770Z,25.26
2018-07-01T14:52:42.512Z,24.99
2018-07-01T14:57:46.777Z,24.98
2018-07-01T15:02:50.898Z,25.22
2018-07-01T15:07:55.237Z,25.19
2018-07-01T15:12:59.145Z,25.35
2018-07-01T15:18:03.001Z,25.18
2018-07-01T15:23:07.165Z,25.20
2018-07-01T15:28:12.547Z,25.14
2018-07-01T15:33:17.036Z,25.15
2018-07-01T15:38:21.742Z,25.22
2018-07-01T15:43:25.731Z,25.16
2018-07-01T15:48:29.439Z,25.26
2018-07-01T15:53:33.645Z,25.40
2018-07-01T15:58:38.594Z,25.06
2018-07-01T16:03:42.953Z,25.09
2018-07-01T16:08:47.624Z,25.17
2018-07-01T16:13:53.772Z,25.12
2018-07-01T16:18:59.804Z,25.33
2018-07-01T16:24:03.448Z,24.90
2018-07-01T16:29:07.788Z,24.96
2018-07-01T16:34:11.387Z,24.76
2018-07-01T16:39:15.253Z,25.34
2018-07-01T16:44:19.596Z,26.08
2018-07-01T16:49:23.156Z,26.78
2018-07-01T16:54:26.773Z,26.64
2018-07-01T16:59:31.876Z,25.83
2018-07-01T17:04:35.389Z,25.30
2018-07-01T17:09:38.892Z,25.31
2018-07-01T17:14:42.571Z,25.15
2018-07-01T17:19:46.518Z,24.58
2018-07-01T17:24:50.064Z,24.42
2018-07-01T17:29:53.669Z,24.16
2018-07-01T17:34:57.303Z,24.16
2018-07-01T17:40:01.012Z,23.89
2018-07-01T17:45:04.624Z,23.72
2018-07-01T17:50:09.255Z,23.72
2018-07-01T17:55:13.296Z,23.69
2018-07-01T18:00:27.080Z,23.56
2018-07-01T18:05:30.745Z,23.46
2018-07-01T18:10:34.550Z,23.25
2018-07-01T18:15:38.210Z,23.16
2018-07-01T18:20:41.757Z,23.05
2018-07-01T18:25:47.482Z,22.99
2018-07-01T18:30:51.012Z,22.89
2018-07-01T18:35:54.598Z,22.81
2018-07-01T18:40:58.077Z,22.62
2018-07-01T18:46:01.618Z,22.51
2018-07-01T18:51:05.126Z,22.42
2018-07-01T18:56:09.163Z,22.31
2018-07-01T19:01:12.851Z,22.20
2018-07-01T19:06:16.487Z,22.08
2018-07-01T19:11:19.960Z,21.91
2018-07-01T19:16:23.509Z,21.78
2018-07-01T19:21:26.967Z,21.71
2018-07-01T19:26:30.794Z,21.52
2018-07-01T19:31:34.416Z,21.35
2018-07-01T19:36:38.426Z,21.17
2018-07-01T19:41:41.965Z,21.07
2018-07-01T19:46:45.486Z,20.96
2018-07-01T19:51:48.997Z,20.85
2018-07-01T19:56:53.037Z,20.72
2018-07-01T20:01:56.540Z,20.52
2018-07-01T20:07:00.675Z,20.47
2018-07-01T20:12:04.162Z,20.31
2018-07-01T20:17:08.101Z,20.19
2018-07-01T20:22:12.616Z,20.08
2018-07-01T20:27:16.199Z,20.03
2018-07-01T20:32:19.761Z,19.93
2018-07-01T20:37:23.301Z,19.81
2018-07-01T20:42:26.838Z,19.72
2018-07-01T20:47:30.908Z,19.55
2018-07-01T20:52:35.106Z,19.46
2018-07-01T20:57:39.483Z,19.42
2018-07-01T21:02:44.029Z,19.31
2018-07-01T21:07:47.759Z,19.15
2018-07-01T21:12:51.289Z,18.98
2018-07-01T21:17:54.839Z,18.89
2018-07-01T21:22:59.049Z,18.78
2018-07-01T21:28:02.739Z,18.67
2018-07-01T21:33:06.490Z,18.60
2018-07-01T21:38:10.112Z,18.53
2018-07-01T21:43:13.689Z,18.52
2018-07-01T21:48:17.264Z,18.39
2018-07-01T21:53:20.942Z,18.30
2018-07-01T21:58:24.929Z,18.16
2018-07-01T22:03:29.029Z,18.08
2018-07-01T22:08:32.530Z,18.00
2018-07-01T22:14:45.239Z,17.70
2018-07-01T22:19:49.444Z,17.60
2018-07-01T22:24:53.068Z,17.50
2018-07-01T22:29:57.037Z,17.46
2018-07-01T22:35:00.734Z,17.48
2018-07-01T22:40:04.888Z,17.44
2018-07-01T22:45:09.365Z,17.32
2018-07-01T22:50:12.904Z,17.35
2018-07-01T22:55:16.719Z,17.28
2018-07-01T23:00:20.269Z,17.18
2018-07-01T23:05:24.381Z,16.98
2018-07-01T23:10:28.670Z,16.79
2018-07-01T23:15:32.315Z,16.76
2018-07-01T23:20:35.836Z,16.75
2018-07-01T23:25:41.447Z,16.80
2018-07-01T23:30:45.359Z,16.78
2018-07-01T23:35:48.940Z,16.68
2018-07-01T23:40:52.441Z,16.67
2018-07-01T23:45:56.053Z,16.56
2018-07-01T23:50:59.556Z,16.45
2018-07-01T23:56:03.760Z,16.37
